Time;durP1;ratioP1;P1;durP2;ratioP2;P2;SDS_P1;SDS_P2;PMS_P1;PMS_P2;Temp;Humidity;BMP_temperature;BMP_pressure;BME280_temperature;BME280_humidity;BME280_pressure;Samples;Min_cycle;Max_cycle;Signal;HPM_P1;HPM_P2
2022/08/18 00:00:16;;;;;;;8.55;7.75;;;;;;;22.24;58.10;99429.69;5113812;28;20039;-63
2022/08/18 00:02:46;;;;;;;9.35;8.45;;;;;;;22.22;58.08;99437.06;5096452;28;20083;-64
2022/08/18 00:05:26;;;;;;;10.43;9.23;;;;;;;22.20;58.00;99441.78;5113947;28;20035;-63
2022/08/18 00:07:56;;;;;;;11.23;10.15;;;;;;;22.17;58.26;99442.94;5113759;28;20056;-63
2022/08/18 00:10:23;;;;;;;12.02;10.05;;;;;;;22.16;58.45;99435.88;5113800;28;20047;-63
2022/08/18 00:12:50;;;;;;;10.05;9.05;;;;;;;22.14;58.55;99432.56;5095901;28;20043;-64
2022/08/18 00:15:25;;;;;;;10.63;9.52;;;;;;;22.13;58.57;99439.75;5113940;28;20388;-63
2022/08/18 00:17:51;;;;;;;13.18;9.32;;;;;;;22.13;58.67;99444.31;5095971;28;20329;-62
2022/08/18 00:20:22;;;;;;;11.40;10.18;;;;;;;22.11;59.22;99455.19;5113466;28;20040;-63
2022/08/18 00:22:50;;;;;;;11.18;10.00;;;;;;;22.13;58.72;99457.69;5113628;28;20051;-63
2022/08/18 00:25:19;;;;;;;12.10;10.70;;;;;;;22.13;58.97;99460.38;5113614;28;20317;-63
2022/08/18 00:27:45;;;;;;;12.30;9.98;;;;;;;22.11;58.82;99459.69;5113613;28;20436;-64
2022/08/18 00:30:19;;;;;;;9.82;8.77;;;;;;;22.06;59.50;99467.41;5113387;28;20502;-64
2022/08/18 00:32:55;;;;;;;11.18;9.98;;;;;;;22.04;59.51;99469.41;5113597;28;20055;-62
2022/08/18 00:35:29;;;;;;;12.18;10.93;;;;;;;22.02;59.56;99472.28;5113831;28;20047;-63
2022/08/18 00:37:59;;;;;;;12.05;10.85;;;;;;;22.03;59.57;99467.75;5113572;28;20047;-64
2022/08/18 00:40:35;;;;;;;13.80;12.43;;;;;;;22.01;59.62;99478.63;5113085;28;20044;-62
2022/08/18 00:43:05;;;;;;;12.52;11.23;;;;;;;22.01;59.50;99475.97;5113320;28;20081;-63
2022/08/18 00:45:39;;;;;;;13.40;12.07;;;;;;;21.98;59.87;99482.50;5113381;28;20468;-64
2022/08/18 00:48:07;;;;;;;13.52;12.13;;;;;;;22.00;59.43;99485.84;5113221;28;20047;-63
2022/08/18 00:50:39;;;;;;;16.25;14.65;;;;;;;21.98;60.13;99485.16;5113192;28;20047;-63
2022/08/18 00:53:21;;;;;;;17.33;15.43;;;;;;;21.96;59.99;99476.47;5113558;28;20388;-64
2022/08/18 00:55:49;;;;;;;17.13;14.80;;;;;;;21.98;59.40;99477.13;5113124;28;20413;-63
2022/08/18 00:58:38;;;;;;;16.90;15.10;;;;;;;21.95;60.24;99479.31;5113211;28;20044;-62
2022/08/18 01:01:08;;;;;;;17.85;15.65;;;;;;;21.95;60.12;99479.31;5113238;28;20051;-62
2022/08/18 01:03:38;;;;;;;16.85;15.15;;;;;;;21.93;59.88;99479.50;5111974;28;20055;-65
2022/08/18 01:06:38;;;;;;;16.23;14.52;;;;;;;21.87;60.58;99486.34;5112760;28;20168;-63
2022/08/18 01:09:07;;;;;;;15.77;14.15;;;;;;;21.89;59.87;99483.50;5113351;28;20407;-63
2022/08/18 01:11:37;;;;;;;16.13;14.30;;;;;;;21.87;60.49;99480.19;5113058;28;20429;-63
2022/08/18 01:14:08;;;;;;;16.60;14.90;;;;;;;21.84;61.02;99481.34;5112910;28;20051;-65
2022/08/18 01:23:19;;;;;;;17.00;14.93;;;;;;;21.86;60.52;99462.41;5112947;28;20410;-64
2022/08/18 01:26:00;;;;;;;18.98;16.92;;;;;;;21.87;60.55;99461.41;5112437;28;20093;-64
2022/08/18 01:28:31;;;;;;;17.95;16.02;;;;;;;21.88;60.87;99465.75;5112277;28;20036;-63
2022/08/18 01:31:00;;;;;;;23.15;16.10;;;;;;;21.89;60.65;99466.59;5112388;28;20437;-63
2022/08/18 01:33:31;;;;;;;21.48;16.75;;;;;;;21.89;61.01;99464.75;5112433;28;20088;-63
2022/08/18 01:36:19;;;;;;;17.58;15.77;;;;;;;21.85;61.26;99463.41;5094549;28;20044;-63
2022/08/18 01:38:50;;;;;;;17.98;16.17;;;;;;;21.90;60.85;99462.91;5112723;28;20421;-63
2022/08/18 01:41:21;;;;;;;17.23;15.43;;;;;;;21.91;60.40;99464.59;5112368;28;20532;-64
2022/08/18 01:43:58;;;;;;;16.83;15.13;;;;;;;21.89;60.54;99464.75;5095654;28;20043;-63
2022/08/18 01:46:26;;;;;;;17.77;15.88;;;;;;;21.87;60.34;99461.41;5112167;28;20048;-62
2022/08/18 01:48:53;;;;;;;16.88;15.25;;;;;;;21.85;60.43;99456.22;5112017;28;20557;-62
2022/08/18 01:51:20;;;;;;;16.90;15.20;;;;;;;21.84;60.56;99449.19;5112082;28;20101;-64
2022/08/18 01:54:08;;;;;;;21.17;18.40;;;;;;;21.85;60.79;99439.31;5097014;28;20084;-63
2022/08/18 01:56:35;;;;;;;23.70;19.70;;;;;;;21.85;61.24;99440.16;5112261;28;20096;-63
2022/08/18 01:59:03;;;;;;;27.42;21.92;;;;;;;21.84;60.96;99440.31;5112207;28;20051;-63
2022/08/18 02:01:30;;;;;;;26.40;22.42;;;;;;;21.86;61.14;99446.31;5112170;28;20054;-63
2022/08/18 02:04:02;;;;;;;26.00;22.40;;;;;;;21.84;61.28;99449.19;5111939;28;20047;-64
2022/08/18 02:06:49;;;;;;;29.23;23.08;;;;;;;21.85;61.14;99450.03;5112055;28;20131;-63
2022/08/18 02:09:16;;;;;;;25.70;21.88;;;;;;;21.83;61.11;99450.19;5111687;28;20048;-63
2022/08/18 02:11:49;;;;;;;29.52;24.08;;;;;;;21.84;61.26;99448.34;5112282;28;20036;-63
2022/08/18 02:14:19;;;;;;;24.73;20.58;;;;;;;21.81;61.33;99433.47;5111590;28;20051;-64
2022/08/18 02:16:52;;;;;;;25.13;22.15;;;;;;;21.82;60.98;99434.28;5111964;28;20054;-62
2022/08/18 02:19:24;;;;;;;26.25;22.38;;;;;;;21.80;61.44;99433.63;5111591;28;20036;-63
2022/08/18 02:21:51;;;;;;;25.98;20.67;;;;;;;21.78;61.42;99439.16;5111617;28;20472;-62
2022/08/18 02:24:18;;;;;;;25.75;21.35;;;;;;;21.75;61.39;99431.44;5111450;28;20048;-63
2022/08/18 02:26:44;;;;;;;22.98;19.42;;;;;;;21.74;61.45;99437.81;5111201;28;20043;-63
2022/08/18 02:29:11;;;;;;;23.85;20.52;;;;;;;21.73;61.58;99436.13;5111593;28;20043;-63
2022/08/18 02:31:38;;;;;;;22.92;20.05;;;;;;;21.71;61.50;99425.56;5111652;28;20050;-63
2022/08/18 02:34:04;;;;;;;27.38;21.92;;;;;;;21.71;61.06;99438.94;5111542;28;20104;-65
2022/08/18 02:36:31;;;;;;;22.63;20.10;;;;;;;21.71;61.99;99438.09;5111374;28;20441;-62
2022/08/18 02:38:57;;;;;;;24.73;20.95;;;;;;;21.71;61.51;99436.28;5111177;28;20430;-63
2022/08/18 02:41:27;;;;;;;26.40;21.05;;;;;;;21.73;61.49;99446.84;5111717;28;20051;-64
2022/08/18 02:43:55;;;;;;;26.65;20.50;;;;;;;21.74;61.60;99452.06;5111394;28;20043;-63
2022/08/18 02:46:21;;;;;;;22.35;19.80;;;;;;;21.77;62.15;99458.06;5111516;28;20093;-63
2022/08/18 02:48:51;;;;;;;22.83;20.42;;;;;;;21.78;62.34;99460.56;5111025;28;20079;-63
2022/08/18 02:51:18;;;;;;;27.65;19.58;;;;;;;21.80;62.12;99471.13;5093327;28;20077;-63
2022/08/18 02:53:46;;;;;;;23.08;19.55;;;;;;;21.83;62.48;99463.56;5111225;28;20048;-62
2022/08/18 02:56:24;;;;;;;20.75;18.55;;;;;;;21.84;62.96;99461.75;5111283;28;20096;-63
2022/08/18 02:59:09;;;;;;;23.70;19.08;;;;;;;21.90;62.59;99466.41;5095164;28;20055;-62
2022/08/18 03:01:39;;;;;;;20.17;18.00;;;;;;;21.94;62.63;99469.63;5111086;28;20047;-63
2022/08/18 03:04:08;;;;;;;23.38;19.50;;;;;;;21.97;62.56;99464.75;5111057;28;20163;-63
2022/08/18 03:06:37;;;;;;;22.92;20.58;;;;;;;21.99;62.80;99478.81;5111127;28;20060;-64
2022/08/18 03:09:06;;;;;;;23.13;20.67;;;;;;;22.02;62.56;99474.97;5110935;28;20448;-63
2022/08/18 03:11:34;;;;;;;23.33;20.48;;;;;;;22.05;62.43;99476.47;5111072;28;20047;-62
2022/08/18 03:14:01;;;;;;;21.42;19.17;;;;;;;22.05;62.58;99471.13;5111065;28;20043;-63
2022/08/18 03:16:30;;;;;;;21.80;19.45;;;;;;;22.07;62.53;99474.44;5092819;28;20475;-64
2022/08/18 03:18:58;;;;;;;19.27;17.30;;;;;;;22.08;62.53;99476.97;5110573;28;20047;-64
2022/08/18 03:21:27;;;;;;;22.27;19.83;;;;;;;22.12;62.62;99472.09;5111063;28;20043;-63
2022/08/18 03:23:56;;;;;;;24.77;22.17;;;;;;;22.15;62.66;99463.72;5109973;28;20047;-63
2022/08/18 03:26:28;;;;;;;25.63;22.83;;;;;;;22.18;62.91;99458.03;5111236;28;20040;-64
2022/08/18 03:28:56;;;;;;;35.97;26.35;;;;;;;22.20;62.96;99458.66;5114612;28;20069;-63
2022/08/18 03:31:25;;;;;;;72.80;31.58;;;;;;;22.23;63.07;99455.66;5114671;28;20051;-63
2022/08/18 03:33:56;;;;;;;35.47;28.90;;;;;;;22.24;63.08;99460.00;5114616;28;20050;-63
2022/08/18 03:36:30;;;;;;;40.42;31.40;;;;;;;22.26;63.42;99462.50;5114637;28;20054;-62
2022/08/18 03:39:00;;;;;;;40.50;31.58;;;;;;;22.28;63.12;99462.34;5114686;28;20044;-64
2022/08/18 03:41:28;;;;;;;41.08;32.00;;;;;;;22.28;63.51;99460.50;5115216;28;20113;-63
2022/08/18 03:44:15;;;;;;;41.05;32.53;;;;;;;22.30;63.26;99457.63;5114833;28;20307;-63
2022/08/18 03:46:43;;;;;;;44.65;33.08;;;;;;;22.30;63.90;99463.84;5114420;28;20097;-63
2022/08/18 03:49:11;;;;;;;51.08;36.83;;;;;;;22.30;63.65;99465.69;5114356;28;20111;-62
2022/08/18 03:51:42;;;;;;;38.75;30.83;;;;;;;22.29;63.94;99461.34;5114746;28;20035;-63
2022/08/18 03:54:09;;;;;;;48.08;35.67;;;;;;;22.31;63.89;99462.00;5114688;28;20054;-63
2022/08/18 03:56:37;;;;;;;48.15;36.08;;;;;;;22.32;63.75;99471.72;5114484;28;20044;-62
2022/08/18 03:59:09;;;;;;;45.00;34.45;;;;;;;22.32;64.22;99467.19;5114001;28;20491;-63
2022/08/18 04:01:38;;;;;;;48.90;37.17;;;;;;;22.34;64.18;99473.22;5114761;28;20069;-63
2022/08/18 04:04:09;;;;;;;47.03;36.75;;;;;;;22.38;64.12;99479.06;5114434;28;20043;-64
2022/08/18 04:06:43;;;;;;;49.33;37.00;;;;;;;22.38;64.82;99474.56;5114354;28;20043;-63
2022/08/18 04:09:13;;;;;;;54.60;36.75;;;;;;;22.41;64.41;99475.19;5114015;28;20044;-63
2022/08/18 04:11:44;;;;;;;45.42;34.67;;;;;;;22.44;64.14;99469.50;5114199;28;20048;-63
2022/08/18 04:14:14;;;;;;;46.10;36.15;;;;;;;22.45;64.05;99463.97;5114762;28;20044;-63
2022/08/18 04:16:41;;;;;;;47.13;36.92;;;;;;;22.47;64.11;99469.97;5114021;28;20089;-63
2022/08/18 04:19:08;;;;;;;46.70;36.97;;;;;;;22.47;64.20;99467.31;5114006;28;20055;-63
2022/08/18 04:21:38;;;;;;;46.42;36.80;;;;;;;22.47;64.32;99482.59;5114149;28;20516;-64
2022/08/18 04:24:06;;;;;;;56.85;41.55;;;;;;;22.47;64.05;99478.03;5114237;28;20043;-65
2022/08/18 04:26:42;;;;;;;54.45;41.38;;;;;;;22.43;64.86;99471.34;5114084;28;20044;-62
2022/08/18 04:29:11;;;;;;;50.08;39.40;;;;;;;22.45;64.16;99482.75;5113789;28;20051;-62
2022/08/18 04:31:38;;;;;;;51.85;40.03;;;;;;;22.45;64.21;99473.84;5113850;28;20084;-63
2022/08/18 04:34:05;;;;;;;47.88;36.13;;;;;;;22.44;64.38;99473.03;5113736;28;20471;-62
2022/08/18 04:36:33;;;;;;;46.70;36.35;;;;;;;22.44;64.40;99478.41;5113607;28;20093;-62
2022/08/18 04:39:02;;;;;;;43.15;35.17;;;;;;;22.44;64.55;99469.50;5112218;28;20101;-62
2022/08/18 04:41:29;;;;;;;46.58;34.50;;;;;;;22.45;64.45;99472.03;5113680;28;20069;-62
2022/08/18 04:44:02;;;;;;;35.50;29.85;;;;;;;22.42;64.83;99476.91;5113584;28;20036;-63
2022/08/18 04:46:34;;;;;;;35.00;29.55;;;;;;;22.44;64.26;99478.41;5113193;28;20538;-60
2022/08/18 04:49:00;;;;;;;38.20;31.33;;;;;;;22.46;64.45;99481.72;5113222;28;20043;-63
2022/08/18 04:51:28;;;;;;;38.78;29.35;;;;;;;22.47;64.58;99482.59;5113879;28;20052;-63
2022/08/18 04:54:15;;;;;;;30.45;25.67;;;;;;;22.48;64.58;99479.72;5113335;28;20080;-63
2022/08/18 04:56:42;;;;;;;38.58;32.63;;;;;;;22.49;64.13;99476.03;5113376;28;20456;-64
2022/08/18 04:59:12;;;;;;;34.10;29.20;;;;;;;22.48;64.84;99487.78;5112924;28;20047;-62
2022/08/18 05:01:44;;;;;;;37.08;29.85;;;;;;;22.50;64.55;99482.25;5113191;28;20108;-62
2022/08/18 05:04:12;;;;;;;35.13;29.92;;;;;;;22.51;64.27;99489.28;5113052;28;20131;-64
2022/08/18 05:06:40;;;;;;;35.58;29.90;;;;;;;22.51;64.39;99490.09;5113324;28;20040;-63
2022/08/18 05:09:08;;;;;;;35.40;29.08;;;;;;;22.51;64.56;99487.41;5113014;28;20483;-63
2022/08/18 05:11:36;;;;;;;40.80;31.55;;;;;;;22.51;64.49;99483.91;5113073;28;20105;-62
2022/08/18 05:14:05;;;;;;;40.08;31.38;;;;;;;22.53;64.59;99481.88;5094748;28;20537;-63
2022/08/18 05:16:35;;;;;;;36.33;29.27;;;;;;;22.52;64.55;99478.38;5112838;28;20540;-63
2022/08/18 05:19:18;;;;;;;40.80;29.90;;;;;;;22.54;64.43;99486.22;5112697;28;20125;-64
2022/08/18 05:21:49;;;;;;;37.92;29.45;;;;;;;22.54;64.47;99493.44;5112875;28;20043;-63
2022/08/18 05:24:19;;;;;;;35.83;29.55;;;;;;;22.55;64.70;99500.50;5112571;28;20070;-63
2022/08/18 05:26:47;;;;;;;37.08;31.52;;;;;;;22.53;64.24;99503.34;5112339;28;20104;-62
2022/08/18 05:29:15;;;;;;;33.67;27.80;;;;;;;22.54;64.39;99505.00;5112400;28;20381;-62
2022/08/18 05:31:46;;;;;;;35.45;28.45;;;;;;;22.53;64.71;99506.00;5112597;28;20046;-63
2022/08/18 05:34:14;;;;;;;38.13;31.67;;;;;;;22.54;64.57;99512.22;5112358;28;20040;-64
2022/08/18 05:36:49;;;;;;;35.30;29.50;;;;;;;22.49;65.06;99505.53;5112349;28;20446;-64
2022/08/18 05:39:16;;;;;;;35.88;30.77;;;;;;;22.53;64.46;99511.38;5112061;28;20544;-62
2022/08/18 05:41:47;;;;;;;35.00;28.35;;;;;;;22.51;64.67;99514.22;5094224;28;20116;-64
2022/08/18 05:44:23;;;;;;;35.67;29.67;;;;;;;22.50;65.19;99517.94;5112312;28;20052;-62
2022/08/18 05:46:53;;;;;;;39.20;29.90;;;;;;;22.52;64.67;99523.13;5112360;28;20116;-62
2022/08/18 05:49:20;;;;;;;36.55;29.20;;;;;;;22.52;64.55;99521.28;5111587;28;20051;-62
2022/08/18 05:51:59;;;;;;;35.47;28.90;;;;;;;22.49;65.29;99526.13;5112110;28;20043;-62
2022/08/18 05:57:22;;;;;;;49.15;31.15;;;;;;;22.51;64.65;99516.91;5112099;28;20051;-63
2022/08/18 05:59:52;;;;;;;39.00;30.05;;;;;;;22.49;65.08;99521.63;5111742;28;20101;-63
2022/08/18 06:02:42;;;;;;;37.28;29.63;;;;;;;22.44;65.78;99510.59;5112265;28;20105;-63
2022/08/18 06:05:12;;;;;;;39.42;29.92;;;;;;;22.47;65.14;99512.06;5111914;28;20381;-62
2022/08/18 06:07:48;;;;;;;37.15;29.95;;;;;;;22.47;65.78;99518.25;5111830;28;20444;-63
2022/08/18 06:10:15;;;;;;;39.38;30.75;;;;;;;22.48;65.21;99519.09;5111585;28;20073;-63
2022/08/18 06:12:45;;;;;;;38.28;29.88;;;;;;;22.49;65.61;99529.66;5111912;28;20101;-64
2022/08/18 06:15:37;;;;;;;39.97;30.02;;;;;;;22.52;65.18;99523.97;5112002;28;20035;-62
2022/08/18 06:18:19;;;;;;;37.08;27.85;;;;;;;22.54;65.64;99522.97;5111642;28;20134;-63
2022/08/18 06:21:01;;;;;;;35.08;27.23;;;;;;;22.53;65.73;99527.47;5093722;28;20043;-62
2022/08/18 06:23:33;;;;;;;33.55;28.17;;;;;;;22.58;65.71;99524.31;5111471;28;20479;-63
2022/08/18 06:26:18;;;;;;;39.22;28.92;;;;;;;22.58;65.75;99525.13;5111568;28;20048;-62
2022/08/18 06:28:51;;;;;;;38.22;28.38;;;;;;;22.64;65.51;99528.97;5111136;28;20113;-62
2022/08/18 06:31:31;;;;;;;32.08;25.70;;;;;;;22.63;65.48;99528.16;5111242;28;20491;-63
2022/08/18 06:34:15;;;;;;;34.00;27.23;;;;;;;22.64;65.38;99527.16;5111574;28;20039;-63
2022/08/18 06:37:03;;;;;;;32.05;24.10;;;;;;;22.65;65.41;99534.19;5111763;28;20552;-62
2022/08/18 06:39:46;;;;;;;32.00;24.60;;;;;;;22.65;65.61;99536.00;5111021;28;20434;-62
2022/08/18 06:42:17;;;;;;;31.13;24.20;;;;;;;22.69;65.60;99540.03;5111269;28;20480;-63
2022/08/18 06:44:50;;;;;;;34.03;26.10;;;;;;;22.71;65.71;99538.03;5111522;28;20362;-62
2022/08/18 06:47:29;;;;;;;32.83;25.55;;;;;;;22.74;65.44;99545.75;5111323;28;20112;-63
2022/08/18 06:50:06;;;;;;;33.72;25.63;;;;;;;22.75;65.61;99551.91;5110853;28;20043;-62
2022/08/18 06:52:35;;;;;;;28.05;24.70;;;;;;;22.82;65.29;99558.28;5093315;28;20120;-63
2022/08/18 06:55:16;;;;;;;29.52;24.50;;;;;;;22.83;65.55;99553.75;5111474;28;20047;-62
2022/08/18 06:57:59;;;;;;;35.13;23.77;;;;;;;22.88;65.57;99556.75;5093113;28;20101;-64
2022/08/18 07:00:32;;;;;;;25.08;22.27;;;;;;;22.97;64.91;99549.50;5111063;28;20096;-62
2022/08/18 07:03:10;;;;;;;28.73;23.48;;;;;;;23.00;65.32;99555.38;5110713;28;20131;-62
2022/08/18 07:05:58;;;;;;;26.17;23.35;;;;;;;23.10;64.59;99563.19;5111409;28;20039;-63
2022/08/18 07:08:39;;;;;;;25.70;21.75;;;;;;;23.11;64.93;99567.56;5111193;28;20047;-62
2022/08/18 07:11:27;;;;;;;27.10;22.00;;;;;;;23.15;64.51;99570.75;5110851;28;20092;-63
2022/08/18 07:13:57;;;;;;;27.30;21.60;;;;;;;23.23;64.15;99577.91;5111174;28;20097;-62
2022/08/18 07:16:41;;;;;;;29.20;24.02;;;;;;;23.26;63.73;99574.88;5111000;28;20147;-62
2022/08/18 07:19:28;;;;;;;30.08;23.63;;;;;;;23.25;63.64;99574.03;5095439;28;20046;-63
2022/08/18 07:22:12;;;;;;;28.30;23.95;;;;;;;23.23;64.37;99581.44;5111450;28;20051;-63
2022/08/18 07:24:49;;;;;;;27.65;22.10;;;;;;;23.26;63.92;99583.78;5092968;28;20040;-63
2022/08/18 07:27:21;;;;;;;28.15;21.95;;;;;;;23.30;63.44;99584.25;5110603;28;20048;-64
2022/08/18 07:30:06;;;;;;;25.90;21.67;;;;;;;23.27;63.82;99590.81;5110997;28;20422;-62
2022/08/18 07:32:56;;;;;;;27.15;22.95;;;;;;;23.29;63.91;99591.47;5110608;28;20089;-63
2022/08/18 07:35:31;;;;;;;24.17;20.88;;;;;;;23.34;63.13;99599.06;5095567;28;20044;-62
2022/08/18 07:38:25;;;;;;;23.15;20.23;;;;;;;23.30;63.49;99597.69;5110500;28;20120;-65
2022/08/18 07:41:21;;;;;;;27.48;20.42;;;;;;;23.34;63.63;99593.69;5110501;28;20062;-64
2022/08/18 07:43:50;;;;;;;25.23;20.08;;;;;;;23.38;63.15;99595.00;5110490;28;20069;-62
2022/08/18 07:46:29;;;;;;;26.98;19.52;;;;;;;23.38;63.36;99594.16;5110370;28;20047;-63
2022/08/18 07:48:59;;;;;;;20.17;17.35;;;;;;;23.44;63.33;99593.47;5092312;28;20040;-63
2022/08/18 07:51:42;;;;;;;20.60;16.90;;;;;;;23.45;63.15;99589.75;5110676;28;20071;-63
2022/08/18 07:54:19;;;;;;;17.92;16.02;;;;;;;23.53;63.06;99586.19;5111052;28;20083;-63
2022/08/18 07:57:33;;;;;;;24.33;17.40;;;;;;;23.53;63.61;99584.34;5111036;28;20137;-63
2022/08/18 08:00:30;;;;;;;15.68;14.07;;;;;;;23.61;63.35;99582.59;5110201;28;20089;-63
2022/08/18 08:03:46;;;;;;;15.20;13.70;;;;;;;23.69;63.05;99590.63;5110577;28;20563;-63
2022/08/18 08:06:33;;;;;;;20.25;15.32;;;;;;;23.75;62.86;99581.84;5110617;28;20108;-62
2022/08/18 08:09:18;;;;;;;14.88;13.35;;;;;;;23.87;62.68;99581.44;5110146;28;20096;-63
2022/08/18 08:12:04;;;;;;;14.77;12.65;;;;;;;23.89;62.63;99582.91;5110170;28;20050;-63
2022/08/18 08:14:54;;;;;;;14.40;12.73;;;;;;;23.96;62.62;99580.38;5114190;28;20043;-63
2022/08/18 08:17:45;;;;;;;14.27;12.77;;;;;;;24.04;61.92;99590.22;5113841;28;20097;-63
2022/08/18 08:20:18;;;;;;;14.73;12.40;;;;;;;24.10;61.81;99584.13;5114135;28;20044;-62
2022/08/18 08:22:57;;;;;;;;;;;;;;;24.15;61.90;99589.81;5114453;28;20044;-63
2022/08/18 08:25:44;;;;;;;13.52;11.48;;;;;;;24.24;61.05;99582.53;5113709;28;20313;-63
2022/08/18 08:28:44;;;;;;;14.48;11.68;;;;;;;24.21;61.40;99588.25;5113606;28;20043;-64
2022/08/18 08:31:16;;;;;;;14.30;12.32;;;;;;;24.25;61.17;99589.56;5113404;28;20441;-64
2022/08/18 08:34:43;;;;;;;17.15;11.82;;;;;;;24.26;61.30;99591.22;5113293;28;20139;-65
2022/08/18 08:37:28;;;;;;;15.77;12.02;;;;;;;24.33;60.94;99597.56;5095921;28;20101;-63
2022/08/18 08:40:01;;;;;;;13.50;11.50;;;;;;;24.45;60.89;99599.81;5113306;28;20516;-64
2022/08/18 08:42:46;;;;;;;12.85;11.32;;;;;;;24.50;60.53;99600.09;5113422;28;20057;-63
2022/08/18 08:45:25;;;;;;;12.68;11.18;;;;;;;24.54;60.47;99603.25;5095279;28;20445;-63
2022/08/18 08:48:04;;;;;;;12.40;11.10;;;;;;;24.57;59.88;99602.91;5095142;28;20533;-63
2022/08/18 08:50:42;;;;;;;14.00;11.13;;;;;;;24.61;59.81;99609.59;5113259;28;20043;-64
2022/08/18 08:53:40;;;;;;;13.07;11.40;;;;;;;24.60;59.75;99619.50;5095085;28;20475;-64
2022/08/18 08:56:13;;;;;;;12.98;11.50;;;;;;;24.66;60.10;99622.47;5113580;28;20093;-64
2022/08/18 08:58:53;;;;;;;12.57;11.20;;;;;;;24.62;59.61;99631.97;5113044;28;20377;-64
2022/08/18 09:01:38;;;;;;;17.38;12.82;;;;;;;24.63;59.66;99622.84;5113019;28;20048;-63
2022/08/18 09:04:20;;;;;;;14.60;13.10;;;;;;;24.53;59.78;99629.34;5113314;28;20036;-65
2022/08/18 09:07:08;;;;;;;15.15;13.63;;;;;;;24.49;59.53;99627.19;5113097;28;20044;-62
2022/08/18 09:09:41;;;;;;;16.45;14.23;;;;;;;24.46;59.22;99615.78;5112511;28;20051;-63
2022/08/18 09:12:15;;;;;;;;;;;;;;;24.42;59.80;99619.00;5113465;28;20047;-63
2022/08/18 09:15:16;;;;;;;15.63;13.93;;;;;;;24.42;59.73;99614.47;5113073;28;19946;-63
2022/08/18 09:18:41;;;;;;;19.58;15.20;;;;;;;24.40;59.69;99619.19;5112859;28;20101;-63
2022/08/18 09:21:20;;;;;;;16.33;13.40;;;;;;;24.45;59.45;99615.97;5111697;28;20044;-63
2022/08/18 09:23:51;;;;;;;15.98;13.00;;;;;;;24.47;59.99;99619.28;5112856;28;20361;-63
2022/08/18 09:26:34;;;;;;;15.10;13.60;;;;;;;24.48;59.97;99615.56;5112241;28;20476;-63
2022/08/18 09:29:24;;;;;;;15.05;12.98;;;;;;;24.54;59.80;99617.56;5112245;28;20383;-63
2022/08/18 09:32:19;;;;;;;13.63;11.25;;;;;;;24.60;59.20;99618.69;5094518;28;20047;-63
2022/08/18 09:34:57;;;;;;;11.07;9.93;;;;;;;24.69;59.35;99614.03;5112754;28;20051;-63
2022/08/18 09:37:39;;;;;;;13.77;10.85;;;;;;;24.75;59.32;99617.84;5094693;28;20043;-63
2022/08/18 09:43:53;;;;;;;11.57;10.32;;;;;;;24.94;58.84;99621.88;5112854;28;20174;-66
2022/08/18 09:46:51;;;;;;;15.43;11.63;;;;;;;25.03;59.24;99625.31;5094242;28;20043;-64
2022/08/18 09:49:21;;;;;;;11.52;10.27;;;;;;;25.15;58.33;99615.75;5112308;28;20183;-64
2022/08/18 09:51:49;;;;;;;10.60;9.50;;;;;;;25.23;58.27;99615.66;5112389;28;20092;-63
2022/08/18 09:54:31;;;;;;;11.77;10.38;;;;;;;25.30;58.03;99613.03;5112324;28;20043;-63
2022/08/18 09:57:03;;;;;;;12.95;9.75;;;;;;;25.43;58.39;99620.47;5112354;28;20056;-63
2022/08/18 09:59:33;;;;;;;9.90;8.90;;;;;;;25.59;57.60;99622.13;5111800;28;20395;-64
2022/08/18 10:02:00;;;;;;;9.25;8.25;;;;;;;25.74;57.48;99635.56;5112299;28;20054;-64
2022/08/18 10:04:34;;;;;;;8.85;7.93;;;;;;;25.87;57.30;99642.94;5112122;28;20059;-63
2022/08/18 10:07:37;;;;;;;9.52;8.43;;;;;;;25.96;56.93;99638.28;5111992;28;20081;-64
2022/08/18 10:10:22;;;;;;;9.50;8.52;;;;;;;26.06;57.13;99627.19;5072311;28;20052;-63
2022/08/18 10:13:22;;;;;;;11.00;8.82;;;;;;;26.20;57.50;99621.91;5097131;28;20088;-64
2022/08/18 10:15:53;;;;;;;9.77;8.77;;;;;;;26.31;56.86;99624.09;5111710;28;20456;-63
2022/08/18 10:18:38;;;;;;;10.18;8.20;;;;;;;26.35;56.09;99630.78;5111533;28;20051;-63
2022/08/18 10:21:21;;;;;;;10.75;7.55;;;;;;;26.44;55.14;99619.84;5094008;28;20051;-63
2022/08/18 10:24:02;;;;;;;10.75;7.32;;;;;;;26.43;54.97;99602.84;5111505;28;20039;-63
2022/08/18 10:26:59;;;;;;;8.48;7.60;;;;;;;26.47;54.94;99596.00;5111988;28;20047;-62
2022/08/18 10:29:28;;;;;;;11.18;8.35;;;;;;;26.53;55.13;99602.47;5111132;28;20048;-63
2022/08/18 10:31:58;;;;;;;8.95;8.07;;;;;;;26.58;55.50;99607.28;5111526;28;20043;-64
2022/08/18 10:34:57;;;;;;;10.63;7.82;;;;;;;26.58;54.91;99610.84;5111287;28;20498;-65
2022/08/18 10:37:44;;;;;;;8.98;7.40;;;;;;;26.66;54.89;99626.03;5111325;28;20048;-63
2022/08/18 10:40:22;;;;;;;8.43;7.50;;;;;;;26.73;53.91;99617.97;5111165;28;20456;-63
2022/08/18 10:43:17;;;;;;;7.93;7.07;;;;;;;26.78;54.13;99608.25;5111263;28;20050;-64
2022/08/18 10:46:03;;;;;;;7.82;6.68;;;;;;;26.90;54.00;99619.34;5096495;28;20049;-64
2022/08/18 10:49:16;;;;;;;8.85;7.40;;;;;;;26.95;53.10;99617.94;5111021;28;20138;-63
2022/08/18 10:52:35;;;;;;;9.95;6.93;;;;;;;27.04;53.26;99624.84;5110915;28;20126;-63
2022/08/18 10:55:24;;;;;;;6.45;5.47;;;;;;;27.16;53.12;99623.25;5111058;28;20043;-64
2022/08/18 10:58:42;;;;;;;5.82;5.22;;;;;;;27.25;53.80;99633.88;5111255;28;20192;-63
2022/08/18 11:01:42;;;;;;;6.03;5.53;;;;;;;27.33;52.66;99625.63;5111083;28;20048;-62
2022/08/18 11:04:23;;;;;;;6.15;5.55;;;;;;;27.39;52.37;99634.78;5111439;28;20062;-63
2022/08/18 11:07:05;;;;;;;7.97;5.88;;;;;;;27.47;52.37;99622.97;5110910;28;20122;-63
2022/08/18 11:09:33;;;;;;;8.05;6.28;;;;;;;27.48;51.94;99630.88;5110660;28;20052;-63
2022/08/18 11:12:07;;;;;;;6.60;4.97;;;;;;;27.49;51.44;99623.56;5110929;28;20058;-62
2022/08/18 11:14:49;;;;;;;6.35;4.72;;;;;;;27.48;50.90;99624.63;5110748;28;20479;-63
2022/08/18 11:17:28;;;;;;;4.63;4.22;;;;;;;27.45;50.71;99623.16;5093032;28;20090;-63
2022/08/18 11:19:55;;;;;;;5.88;4.93;;;;;;;27.50;51.14;99615.25;5110679;28;20492;-63
2022/08/18 11:22:31;;;;;;;7.22;5.07;;;;;;;27.48;50.86;99621.91;5110619;28;20089;-63
2022/08/18 11:25:16;;;;;;;5.97;5.05;;;;;;;27.51;50.37;99625.03;5110509;28;20096;-64
2022/08/18 11:27:45;;;;;;;5.20;4.68;;;;;;;27.53;50.92;99611.31;5111305;28;20554;-62
2022/08/18 11:30:14;;;;;;;6.30;4.82;;;;;;;27.56;51.04;99609.06;5110528;28;20054;-63
2022/08/18 11:32:43;;;;;;;6.03;5.50;;;;;;;27.63;50.73;99608.28;5110689;28;20044;-63
2022/08/18 11:35:22;;;;;;;6.47;4.78;;;;;;;27.68;50.36;99612.03;5110565;28;20058;-63
2022/08/18 11:37:58;;;;;;;7.20;4.78;;;;;;;27.72;49.75;99608.94;5110896;28;20043;-63
2022/08/18 11:40:30;;;;;;;6.57;5.20;;;;;;;27.79;49.75;99607.91;5110697;28;20044;-62
2022/08/18 11:43:17;;;;;;;8.43;4.88;;;;;;;27.90;51.02;99603.75;5110883;28;20399;-63
2022/08/18 11:45:59;;;;;;;5.00;4.50;;;;;;;28.03;50.42;99602.09;5110529;28;20073;-64
2022/08/18 11:48:48;;;;;;;7.78;5.40;;;;;;;28.26;50.73;99603.59;5112604;28;20085;-63
2022/08/18 11:51:19;;;;;;;4.40;4.00;;;;;;;28.60;50.85;99599.00;5114471;28;20133;-63
2022/08/18 11:54:01;;;;;;;4.88;4.03;;;;;;;28.86;49.61;99599.97;5114666;28;20097;-64
2022/08/18 11:56:36;;;;;;;5.50;4.00;;;;;;;29.16;49.04;99594.09;5114741;28;20053;-64
2022/08/18 11:59:25;;;;;;;4.05;3.70;;;;;;;29.51;48.80;99593.75;5114281;28;20487;-63
2022/08/18 12:02:17;;;;;;;7.45;3.85;;;;;;;30.04;48.15;99599.88;5114409;28;20085;-63
2022/08/18 12:04:51;;;;;;;5.00;3.28;;;;;;;30.47;47.27;99594.72;5114494;28;20440;-63
2022/08/18 12:07:30;;;;;;;4.47;3.30;;;;;;;30.84;46.76;99591.25;5096920;28;20051;-63
2022/08/18 12:10:13;;;;;;;5.65;3.85;;;;;;;31.20;46.73;99595.00;5114137;28;20054;-65
2022/08/18 12:12:48;;;;;;;3.42;3.13;;;;;;;31.61;45.71;99580.06;5096699;28;20043;-64
2022/08/18 12:15:17;;;;;;;5.72;3.33;;;;;;;31.95;45.03;99577.72;5114654;28;20050;-64
2022/08/18 12:18:04;;;;;;;4.30;3.35;;;;;;;32.31;44.77;99578.56;5114421;28;20137;-67